createdAt,value
2022-10-19T00:01:24.620Z,11.28
2022-10-19T00:03:55.559Z,11.30
2022-10-19T00:44:31.533Z,11.40
2022-10-19T00:47:03.715Z,11.41
2022-10-19T00:49:41.582Z,11.40
2022-10-19T00:52:17.447Z,11.40
2022-10-19T00:54:48.244Z,11.37
2022-10-19T00:57:16.562Z,11.37
2022-10-19T00:59:46.108Z,11.39
2022-10-19T01:02:15.515Z,11.42
2022-10-19T01:04:48.108Z,11.41
2022-10-19T01:07:16.785Z,11.42
2022-10-19T01:09:45.462Z,11.43
2022-10-19T01:12:28.464Z,11.47
2022-10-19T01:15:12.136Z,11.50
2022-10-19T01:18:03.740Z,11.51
2022-10-19T01:20:41.013Z,11.53
2022-10-19T01:23:37.546Z,11.54
2022-10-19T01:26:14.910Z,11.54
2022-10-19T01:28:58.103Z,11.52
2022-10-19T01:31:41.755Z,11.50
2022-10-19T01:34:18.244Z,11.50
2022-10-19T01:36:59.522Z,11.52
2022-10-19T01:39:40.045Z,11.56
2022-10-19T01:42:11.211Z,11.59
2022-10-19T01:44:51.384Z,11.61
2022-10-19T01:47:46.049Z,11.63
2022-10-19T01:50:33.155Z,11.64
2022-10-19T01:53:03.682Z,11.64
2022-10-19T01:55:33.818Z,11.64
2022-10-19T01:58:09.521Z,11.63
2022-10-19T02:00:42.868Z,11.62
2022-10-19T02:03:12.294Z,11.62
2022-10-19T02:05:42.478Z,11.63
2022-10-19T02:08:20.640Z,11.62
2022-10-19T02:10:49.711Z,11.61
2022-10-19T02:13:20.908Z,11.60
2022-10-19T02:15:53.105Z,11.60
2022-10-19T02:18:31.123Z,11.59
2022-10-19T02:21:03.426Z,11.57
2022-10-19T02:23:31.921Z,11.56
2022-10-19T02:26:00.650Z,11.52
2022-10-19T02:28:30.405Z,11.49
2022-10-19T02:30:59.788Z,11.47
2022-10-19T02:33:29.466Z,11.45
2022-10-19T02:35:59.394Z,11.45
2022-10-19T02:38:29.784Z,11.44
2022-10-19T02:41:06.185Z,11.43
2022-10-19T02:43:40.190Z,11.43
2022-10-19T02:46:20.212Z,11.44
2022-10-19T02:48:51.088Z,11.43
2022-10-19T02:51:58.647Z,11.41
2022-10-19T02:54:28.693Z,11.39
2022-10-19T02:56:58.417Z,11.40
2022-10-19T02:59:26.901Z,11.40
2022-10-19T03:01:55.284Z,11.35
2022-10-19T03:04:23.605Z,11.33
2022-10-19T03:06:52.213Z,11.28
2022-10-19T03:09:20.694Z,11.24
2022-10-19T03:11:49.195Z,11.19
2022-10-19T03:14:17.536Z,11.16
2022-10-19T03:16:45.811Z,11.10
2022-10-19T03:19:14.196Z,11.05
2022-10-19T03:21:42.552Z,11.02
2022-10-19T03:24:11.494Z,11.01
2022-10-19T03:26:39.780Z,10.99
2022-10-19T03:29:08.048Z,10.99
2022-10-19T03:31:36.349Z,10.99
2022-10-19T03:34:04.713Z,10.98
2022-10-19T03:36:35.719Z,10.98
2022-10-19T03:39:07.460Z,10.97
2022-10-19T03:41:37.333Z,10.96
2022-10-19T03:44:07.555Z,10.95
2022-10-19T03:46:37.378Z,10.95
2022-10-19T03:49:06.330Z,10.96
2022-10-19T03:51:35.758Z,10.95
2022-10-19T03:54:07.086Z,10.97
2022-10-19T03:56:36.266Z,10.99
2022-10-19T03:59:06.397Z,10.97
2022-10-19T04:01:38.305Z,10.98
2022-10-19T04:04:11.288Z,11.00
2022-10-19T04:06:41.971Z,11.01
2022-10-19T04:09:13.820Z,11.01
2022-10-19T04:11:42.552Z,11.02
2022-10-19T04:14:19.092Z,11.04
2022-10-19T04:16:55.453Z,11.05
2022-10-19T04:19:24.021Z,11.06
2022-10-19T04:21:52.363Z,11.07
2022-10-19T04:24:21.221Z,11.08
2022-10-19T04:26:52.450Z,11.10
2022-10-19T04:29:24.930Z,11.10
2022-10-19T04:31:56.349Z,11.11
2022-10-19T04:34:24.716Z,11.12
2022-10-19T04:36:54.096Z,11.14
2022-10-19T04:39:22.559Z,11.16
2022-10-19T04:41:50.882Z,11.17
2022-10-19T04:44:20.020Z,11.18
2022-10-19T04:46:48.436Z,11.20
2022-10-19T04:49:19.479Z,11.21
2022-10-19T04:51:48.711Z,11.21
2022-10-19T04:54:16.969Z,11.22
2022-10-19T04:56:53.864Z,11.23
2022-10-19T04:59:22.225Z,11.24
2022-10-19T05:01:50.965Z,11.25
2022-10-19T05:04:19.279Z,11.25
2022-10-19T05:06:47.814Z,11.25
2022-10-19T05:09:16.747Z,11.27
2022-10-19T05:11:45.079Z,11.27
2022-10-19T05:14:13.405Z,11.29
2022-10-19T05:16:41.697Z,11.31
2022-10-19T05:19:14.151Z,11.34
2022-10-19T05:21:42.458Z,11.34
2022-10-19T05:24:13.698Z,11.34
2022-10-19T05:26:42.028Z,11.32
2022-10-19T05:29:12.926Z,11.31
2022-10-19T05:31:41.333Z,11.31
2022-10-19T05:34:09.641Z,11.28
2022-10-19T05:36:39.680Z,11.25
2022-10-19T05:39:19.454Z,11.25
2022-10-19T05:41:48.577Z,11.25
2022-10-19T05:44:20.244Z,11.22
2022-10-19T05:46:50.448Z,11.21
2022-10-19T05:49:20.613Z,11.21
2022-10-19T05:51:49.483Z,11.20
2022-10-19T05:54:21.837Z,11.19
2022-10-19T05:56:52.599Z,11.18
2022-10-19T05:59:21.765Z,11.18
2022-10-19T06:01:50.179Z,11.19
2022-10-19T06:04:19.378Z,11.21
2022-10-19T06:06:47.962Z,11.23
2022-10-19T06:09:16.341Z,11.24
2022-10-19T06:11:44.669Z,11.25
2022-10-19T06:14:15.714Z,11.27
2022-10-19T06:16:46.015Z,11.26
2022-10-19T06:19:14.783Z,11.27
2022-10-19T06:21:45.837Z,11.27
2022-10-19T06:24:14.691Z,11.28
2022-10-19T06:26:46.105Z,11.30
2022-10-19T06:29:14.479Z,11.30
2022-10-19T06:31:45.336Z,11.30
2022-10-19T06:34:13.732Z,11.31
2022-10-19T06:36:43.412Z,11.35
2022-10-19T06:39:12.093Z,11.35
2022-10-19T06:41:40.314Z,11.36
2022-10-19T06:44:19.818Z,11.38
2022-10-19T06:46:48.397Z,11.39
2022-10-19T06:49:16.819Z,11.39
2022-10-19T06:51:45.296Z,11.39
2022-10-19T06:54:13.645Z,11.40
2022-10-19T06:56:42.012Z,11.41
2022-10-19T06:59:12.997Z,11.42
2022-10-19T07:01:41.689Z,11.46
2022-10-19T07:04:09.957Z,11.47
2022-10-19T07:06:38.490Z,11.47
2022-10-19T07:09:07.557Z,11.47
2022-10-19T07:11:36.224Z,11.49
2022-10-19T07:14:04.490Z,11.48
2022-10-19T07:16:33.550Z,11.50
2022-10-19T07:19:04.470Z,11.52
2022-10-19T07:21:32.888Z,11.54
2022-10-19T07:24:01.248Z,11.56
2022-10-19T07:26:31.464Z,11.58
2022-10-19T07:29:02.878Z,11.63
2022-10-19T07:31:32.718Z,11.66
2022-10-19T07:34:03.157Z,11.68
2022-10-19T07:36:33.534Z,11.70
2022-10-19T07:39:03.396Z,11.73
2022-10-19T07:41:32.126Z,11.75
2022-10-19T07:44:02.310Z,11.78
2022-10-19T07:46:37.065Z,11.79
2022-10-19T07:49:11.974Z,11.81
2022-10-19T07:51:40.885Z,11.81
2022-10-19T07:54:09.312Z,11.83
2022-10-19T07:56:37.821Z,11.86
2022-10-19T07:59:06.431Z,11.88
2022-10-19T08:01:41.196Z,11.90
2022-10-19T08:06:57.930Z,11.94
2022-10-19T08:09:53.122Z,11.98
2022-10-19T08:12:15.601Z,12.03
2022-10-19T08:14:48.129Z,12.05
2022-10-19T08:17:17.759Z,12.08
2022-10-19T08:19:49.841Z,12.12
2022-10-19T08:22:18.139Z,12.14
2022-10-19T08:24:46.409Z,12.19
2022-10-19T08:27:16.844Z,12.17
2022-10-19T08:29:46.991Z,12.16
2022-10-19T08:32:15.264Z,12.17
2022-10-19T08:34:43.644Z,12.17
2022-10-19T08:37:26.053Z,12.16
2022-10-19T08:40:00.370Z,12.16
2022-10-19T08:42:53.946Z,12.18
2022-10-19T08:45:28.459Z,12.19
2022-10-19T08:48:04.267Z,12.21
2022-10-19T08:50:40.058Z,12.21
2022-10-19T08:53:15.653Z,12.27
2022-10-19T08:56:03.540Z,12.31
2022-10-19T08:58:47.874Z,12.39
2022-10-19T09:01:22.363Z,12.45
2022-10-19T09:03:59.819Z,12.49
2022-10-19T09:07:06.991Z,12.51
2022-10-19T09:12:17.874Z,12.60
2022-10-19T09:14:49.210Z,12.61
2022-10-19T09:17:17.740Z,12.64
2022-10-19T09:19:47.075Z,12.70
2022-10-19T09:22:25.424Z,12.75
2022-10-19T09:25:21.646Z,12.81
2022-10-19T09:28:05.020Z,12.85
2022-10-19T09:30:38.368Z,12.80
2022-10-19T09:33:16.081Z,12.78
2022-10-19T09:35:46.605Z,12.78
2022-10-19T09:38:19.851Z,12.76
2022-10-19T09:40:48.193Z,12.72
2022-10-19T09:43:21.868Z,12.71
2022-10-19T09:46:04.095Z,12.72
2022-10-19T09:48:59.420Z,12.71
2022-10-19T09:51:39.985Z,12.71
2022-10-19T09:54:23.944Z,12.69
2022-10-19T09:56:56.479Z,12.71
2022-10-19T09:59:29.895Z,12.77
2022-10-19T10:02:10.566Z,12.80
2022-10-19T10:04:46.075Z,12.87
2022-10-19T10:07:18.351Z,12.92
2022-10-19T10:09:46.840Z,12.96
2022-10-19T10:12:16.056Z,12.96
2022-10-19T10:14:45.035Z,12.93
2022-10-19T10:17:20.850Z,12.94
2022-10-19T10:20:18.625Z,12.92
2022-10-19T10:23:05.054Z,12.95
2022-10-19T10:25:36.879Z,12.95
2022-10-19T10:28:24.179Z,12.96
2022-10-19T10:31:02.029Z,12.98
2022-10-19T10:33:44.142Z,12.96
2022-10-19T10:36:13.751Z,12.97
2022-10-19T10:38:53.324Z,12.96
2022-10-19T10:41:23.755Z,13.02
2022-10-19T10:44:20.823Z,13.11
2022-10-19T10:47:16.946Z,13.19
2022-10-19T10:50:03.113Z,13.22
2022-10-19T10:52:31.712Z,13.22
2022-10-19T10:55:09.438Z,13.22
2022-10-19T10:57:45.204Z,13.23
2022-10-19T11:00:20.441Z,13.22
2022-10-19T11:03:13.147Z,13.21
2022-10-19T11:05:46.646Z,13.18
2022-10-19T11:08:27.546Z,13.12
2022-10-19T11:11:16.262Z,13.05
2022-10-19T11:13:56.819Z,13.02
2022-10-19T11:16:32.503Z,13.02
2022-10-19T11:19:19.737Z,13.04
2022-10-19T11:22:03.433Z,13.00
2022-10-19T11:24:49.000Z,12.96
2022-10-19T11:27:48.865Z,12.97
2022-10-19T11:30:22.802Z,12.97
2022-10-19T11:33:30.358Z,13.02
2022-10-19T11:36:09.276Z,13.09
2022-10-19T11:39:05.703Z,13.13
2022-10-19T11:41:39.460Z,13.21
2022-10-19T11:44:28.066Z,13.21
2022-10-19T11:47:15.490Z,13.23
2022-10-19T11:50:20.805Z,13.23
2022-10-19T11:53:15.506Z,13.26
2022-10-19T11:56:08.180Z,13.32
2022-10-19T11:58:54.285Z,13.35
2022-10-19T12:01:39.677Z,13.33
2022-10-19T12:04:42.970Z,13.36
2022-10-19T12:07:43.463Z,13.42
2022-10-19T12:10:49.144Z,13.42
2022-10-19T12:13:22.039Z,13.36
2022-10-19T12:15:53.990Z,13.31
2022-10-19T12:18:22.186Z,13.26
2022-10-19T12:20:59.198Z,13.19
2022-10-19T12:23:35.213Z,13.16
2022-10-19T12:26:10.345Z,13.11
2022-10-19T12:28:43.363Z,13.11
2022-10-19T12:31:12.439Z,13.05
2022-10-19T12:34:01.840Z,13.04
2022-10-19T12:36:38.404Z,13.10
2022-10-19T12:39:28.345Z,13.20
2022-10-19T12:42:18.606Z,13.27
2022-10-19T12:45:19.133Z,13.30
2022-10-19T12:48:12.894Z,13.27
2022-10-19T12:50:50.536Z,13.27
2022-10-19T12:53:36.194Z,13.23
2022-10-19T12:56:10.899Z,13.21
2022-10-19T12:58:48.493Z,13.25
2022-10-19T13:01:44.100Z,13.32
2022-10-19T13:04:12.309Z,13.38
2022-10-19T13:06:59.226Z,13.42
2022-10-19T13:09:35.483Z,13.43
2022-10-19T13:12:21.883Z,13.41
2022-10-19T13:14:59.223Z,13.35
2022-10-19T13:17:34.364Z,13.26
2022-10-19T13:20:18.291Z,13.18
2022-10-19T13:23:03.537Z,13.10
2022-10-19T13:25:41.901Z,13.02
2022-10-19T13:28:10.683Z,13.00
2022-10-19T13:30:42.312Z,12.99
2022-10-19T13:33:25.811Z,13.01
2022-10-19T13:36:00.656Z,13.07
2022-10-19T13:38:47.975Z,13.14
2022-10-19T13:41:21.816Z,13.15
2022-10-19T13:44:01.899Z,13.14
2022-10-19T13:46:30.123Z,13.13
2022-10-19T13:49:01.506Z,13.11
2022-10-19T13:52:05.041Z,13.10
2022-10-19T13:54:52.194Z,13.09
2022-10-19T13:57:34.061Z,13.06
2022-10-19T14:00:07.079Z,13.05
2022-10-19T14:03:26.629Z,13.02
2022-10-19T14:06:01.462Z,13.00
2022-10-19T14:08:51.635Z,12.97
2022-10-19T14:11:35.988Z,12.95
2022-10-19T14:14:24.510Z,12.91
2022-10-19T14:17:01.447Z,12.88
2022-10-19T14:19:42.112Z,12.88
2022-10-19T14:22:20.854Z,12.84
2022-10-19T14:24:49.176Z,12.83
2022-10-19T14:27:23.135Z,12.80
2022-10-19T14:29:53.466Z,12.79
2022-10-19T14:32:27.344Z,12.76
2022-10-19T14:35:17.560Z,12.76
2022-10-19T14:37:47.410Z,12.73
2022-10-19T14:40:28.102Z,12.70
2022-10-19T14:42:59.528Z,12.67
2022-10-19T14:45:30.902Z,12.65
2022-10-19T14:47:59.448Z,12.66
2022-10-19T14:50:50.571Z,12.65
2022-10-19T14:53:36.746Z,12.63
2022-10-19T14:56:20.980Z,12.61
2022-10-19T14:59:02.634Z,12.56
2022-10-19T15:01:32.364Z,12.53
2022-10-19T15:04:01.816Z,12.51
2022-10-19T15:06:36.037Z,12.47
2022-10-19T15:09:12.126Z,12.43
2022-10-19T15:11:49.927Z,12.40
2022-10-19T15:14:22.659Z,12.36
2022-10-19T15:16:53.139Z,12.33
2022-10-19T15:19:39.747Z,12.31
2022-10-19T15:22:13.944Z,12.31
2022-10-19T15:24:59.328Z,12.26
2022-10-19T15:27:33.594Z,12.23
2022-10-19T15:30:17.311Z,12.21
2022-10-19T15:32:46.649Z,12.18
2022-10-19T15:35:14.863Z,12.16
2022-10-19T15:37:45.696Z,12.14
2022-10-19T15:40:24.913Z,12.11
2022-10-19T15:42:53.841Z,12.06
2022-10-19T15:45:38.204Z,12.03
2022-10-19T15:48:21.724Z,11.99
2022-10-19T15:50:51.988Z,11.96
2022-10-19T15:53:21.891Z,11.93
2022-10-19T15:55:51.732Z,11.88
2022-10-19T15:58:21.684Z,11.85
2022-10-19T16:00:50.031Z,11.81
2022-10-19T16:03:21.268Z,11.76
2022-10-19T16:05:50.603Z,11.70
2022-10-19T16:08:19.147Z,11.67
2022-10-19T16:10:47.563Z,11.64
2022-10-19T16:13:15.781Z,11.58
2022-10-19T16:15:49.969Z,11.54
2022-10-19T16:18:25.049Z,11.50
2022-10-19T16:20:53.787Z,11.46
2022-10-19T16:23:22.858Z,11.41
2022-10-19T16:25:52.871Z,11.37
2022-10-19T16:28:21.192Z,11.31
2022-10-19T16:30:55.165Z,11.27
2022-10-19T16:33:23.669Z,11.24
2022-10-19T16:35:51.911Z,11.21
2022-10-19T16:38:20.722Z,11.17
2022-10-19T16:40:49.484Z,11.16
2022-10-19T16:43:18.649Z,11.12
2022-10-19T16:45:47.383Z,11.09
2022-10-19T16:48:15.923Z,11.06
2022-10-19T16:53:17.360Z,11.00
2022-10-19T16:55:45.626Z,10.96
2022-10-19T16:58:13.890Z,10.92
2022-10-19T17:00:43.685Z,10.91
2022-10-19T17:03:12.094Z,10.89
2022-10-19T17:05:40.445Z,10.89
2022-10-19T17:08:11.675Z,10.87
2022-10-19T17:10:41.528Z,10.86
2022-10-19T17:13:09.773Z,10.85
2022-10-19T17:15:43.476Z,10.84
2022-10-19T17:18:12.828Z,10.82
2022-10-19T17:20:41.254Z,10.81
2022-10-19T17:23:09.525Z,10.79
2022-10-19T17:25:37.837Z,10.78
2022-10-19T17:28:06.123Z,10.76
2022-10-19T17:30:34.413Z,10.74
2022-10-19T17:33:02.743Z,10.73
2022-10-19T17:35:31.135Z,10.72
2022-10-19T17:37:59.961Z,10.70
2022-10-19T17:40:28.809Z,10.68
2022-10-19T17:42:57.638Z,10.68
2022-10-19T17:45:28.098Z,10.68
2022-10-19T17:47:56.854Z,10.68
2022-10-19T17:50:25.223Z,10.69
2022-10-19T17:52:53.541Z,10.67
2022-10-19T17:57:55.411Z,10.66
2022-10-19T18:00:25.657Z,10.66
2022-10-19T18:02:55.287Z,10.65
2022-10-19T18:05:23.720Z,10.64
2022-10-19T18:07:53.788Z,10.64
2022-10-19T18:10:22.253Z,10.64
2022-10-19T18:12:51.328Z,10.64
2022-10-19T18:15:19.642Z,10.62
2022-10-19T18:17:48.065Z,10.61
2022-10-19T18:20:21.699Z,10.60
2022-10-19T18:22:50.022Z,10.58
2022-10-19T18:25:21.780Z,10.59
2022-10-19T18:27:59.135Z,10.58
2022-10-19T18:30:28.041Z,10.57
2022-10-19T18:32:56.311Z,10.57
2022-10-19T18:35:24.717Z,10.58
2022-10-19T18:37:53.440Z,10.57
2022-10-19T18:40:31.986Z,10.56
2022-10-19T18:43:02.526Z,10.53
2022-10-19T18:45:30.949Z,10.53
2022-10-19T18:47:59.649Z,10.50
2022-10-19T18:50:29.827Z,10.50
2022-10-19T18:52:58.200Z,10.49
2022-10-19T18:55:32.772Z,10.47
2022-10-19T18:58:01.040Z,10.47
2022-10-19T19:00:29.419Z,10.47
2022-10-19T19:02:57.749Z,10.45
2022-10-19T19:05:26.285Z,10.44
2022-10-19T19:07:57.724Z,10.43
2022-10-19T19:10:26.062Z,10.44
2022-10-19T19:12:54.536Z,10.44
2022-10-19T19:15:22.961Z,10.44
2022-10-19T19:17:54.889Z,10.43
2022-10-19T19:20:23.369Z,10.42
2022-10-19T19:22:51.807Z,10.41
2022-10-19T19:25:22.081Z,10.39
2022-10-19T19:27:50.377Z,10.38
2022-10-19T19:30:18.765Z,10.35
2022-10-19T19:32:47.456Z,10.34
2022-10-19T19:35:16.064Z,10.31
2022-10-19T19:37:45.707Z,10.29
2022-10-19T19:40:14.056Z,10.27
2022-10-19T19:42:42.455Z,10.26
2022-10-19T19:45:11.027Z,10.23
2022-10-19T19:47:39.513Z,10.21
2022-10-19T19:50:08.521Z,10.21
2022-10-19T19:52:40.215Z,10.20
2022-10-19T19:55:09.084Z,10.17
2022-10-19T19:57:38.035Z,10.15
2022-10-19T20:00:07.134Z,10.14
2022-10-19T20:02:57.172Z,10.15
2022-10-19T20:05:27.184Z,10.13
2022-10-19T20:07:55.717Z,10.10
2022-10-19T20:10:24.173Z,10.08
2022-10-19T20:12:52.548Z,10.06
2022-10-19T20:15:21.053Z,10.03
2022-10-19T20:17:49.475Z,10.00
2022-10-19T20:20:18.378Z,9.99
2022-10-19T20:22:48.211Z,9.94
2022-10-19T20:25:17.402Z,9.91
2022-10-19T20:27:45.780Z,9.88
2022-10-19T20:30:14.276Z,9.85
2022-10-19T20:32:42.564Z,9.82
2022-10-19T20:35:10.969Z,9.79
2022-10-19T20:37:39.693Z,9.76
2022-10-19T20:40:09.455Z,9.72
2022-10-19T20:42:38.442Z,9.68
2022-10-19T20:45:07.907Z,9.64
2022-10-19T20:47:36.625Z,9.64
2022-10-19T20:50:06.349Z,9.61
2022-10-19T20:52:36.793Z,9.59
2022-10-19T20:55:07.381Z,9.56
2022-10-19T20:57:35.694Z,9.52
2022-10-19T21:00:05.171Z,9.50
2022-10-19T21:02:34.041Z,9.49
2022-10-19T21:05:02.704Z,9.46
2022-10-19T21:07:31.012Z,9.42
2022-10-19T21:09:59.371Z,9.39
2022-10-19T21:12:27.767Z,9.36
2022-10-19T21:14:59.399Z,9.33
2022-10-19T21:17:28.046Z,9.30
2022-10-19T21:19:57.393Z,9.28
2022-10-19T21:22:25.973Z,9.27
2022-10-19T21:24:55.474Z,9.23
2022-10-19T21:27:23.837Z,9.21
2022-10-19T21:29:52.207Z,9.19
2022-10-19T21:32:21.033Z,9.16
2022-10-19T21:34:49.866Z,9.15
2022-10-19T21:37:18.803Z,9.13
2022-10-19T21:39:47.355Z,9.11
2022-10-19T21:42:15.659Z,9.08
2022-10-19T21:44:44.336Z,9.07
2022-10-19T21:47:13.043Z,9.05
2022-10-19T21:49:41.322Z,9.02
2022-10-19T21:52:15.134Z,9.02
2022-10-19T21:54:44.447Z,9.00
2022-10-19T21:57:12.736Z,9.00
2022-10-19T21:59:40.981Z,8.97
2022-10-19T22:02:09.710Z,8.94
2022-10-19T22:04:38.143Z,8.92
2022-10-19T22:07:06.804Z,8.91
2022-10-19T22:09:35.188Z,8.88
2022-10-19T22:12:03.684Z,8.85
2022-10-19T22:14:32.389Z,8.84
2022-10-19T22:17:00.750Z,8.81
2022-10-19T22:19:29.110Z,8.81
2022-10-19T22:21:57.439Z,8.78
2022-10-19T22:24:25.839Z,8.78
2022-10-19T22:26:54.296Z,8.77
2022-10-19T22:29:22.756Z,8.75
2022-10-19T22:31:51.065Z,8.74
2022-10-19T22:34:19.953Z,8.72
2022-10-19T22:36:48.235Z,8.70
2022-10-19T22:39:17.064Z,8.66
2022-10-19T22:42:42.460Z,8.62
2022-10-19T22:45:30.365Z,8.58
2022-10-19T22:48:00.271Z,8.53
2022-10-19T22:50:28.608Z,8.50
2022-10-19T22:52:57.061Z,8.48
2022-10-19T22:55:25.397Z,8.44
2022-10-19T22:57:53.705Z,8.42
2022-10-19T23:00:22.434Z,8.40
2022-10-19T23:02:51.148Z,8.38
2022-10-19T23:05:19.456Z,8.37
2022-10-19T23:07:47.824Z,8.34
2022-10-19T23:10:17.532Z,8.33
2022-10-19T23:12:50.152Z,8.31
2022-10-19T23:15:22.216Z,8.29
2022-10-19T23:17:50.574Z,8.27
2022-10-19T23:20:19.032Z,8.26
2022-10-19T23:22:47.312Z,8.24
2022-10-19T23:25:15.674Z,8.20
2022-10-19T23:27:43.955Z,8.19
2022-10-19T23:30:12.319Z,8.17
2022-10-19T23:32:40.687Z,8.14
2022-10-19T23:35:09.194Z,8.11
2022-10-19T23:37:38.032Z,8.11
2022-10-19T23:40:07.366Z,8.07
2022-10-19T23:42:35.670Z,8.05
2022-10-19T23:45:04.290Z,8.03
2022-10-19T23:47:32.834Z,8.00
2022-10-19T23:50:01.232Z,8.00
2022-10-19T23:52:29.544Z,7.98
2022-10-19T23:54:58.815Z,7.97
2022-10-19T23:57:27.054Z,7.96
2022-10-19T23:59:56.300Z,7.94
